sensor_id;sensor_type;location;lat;lon;timestamp;pressure;altitude;pressure_sealevel;temperature;humidity
28701;BME280;15877;52.344;16.790;2022-09-09T00:00:22;100167.20;;;20.04;84.54
28701;BME280;15877;52.344;16.790;2022-09-09T00:03:17;100161.90;;;20.02;84.62
28701;BME280;15877;52.344;16.790;2022-09-09T00:05:58;100158.67;;;20.03;84.02
28701;BME280;15877;52.344;16.790;2022-09-09T00:08:41;100158.76;;;20.02;83.04
28701;BME280;15877;52.344;16.790;2022-09-09T00:11:24;100158.31;;;20.01;82.44
28701;BME280;15877;52.344;16.790;2022-09-09T00:14:07;100157.88;;;19.99;82.19
28701;BME280;15877;52.344;16.790;2022-09-09T00:16:46;100160.50;;;19.96;82.47
28701;BME280;15877;52.344;16.790;2022-09-09T00:19:26;100161.77;;;19.94;82.65
28701;BME280;15877;52.344;16.790;2022-09-09T00:22:14;100164.82;;;19.86;83.15
28701;BME280;15877;52.344;16.790;2022-09-09T00:24:48;100150.77;;;19.71;83.78
28701;BME280;15877;52.344;16.790;2022-09-09T00:27:28;100165.67;;;19.83;83.73
28701;BME280;15877;52.344;16.790;2022-09-09T00:30:13;100162.90;;;19.85;83.14
28701;BME280;15877;52.344;16.790;2022-09-09T00:32:47;100162.79;;;19.86;82.86
28701;BME280;15877;52.344;16.790;2022-09-09T00:35:24;100161.30;;;19.85;82.64
28701;BME280;15877;52.344;16.790;2022-09-09T00:38:00;100158.85;;;19.82;82.58
28701;BME280;15877;52.344;16.790;2022-09-09T00:40:35;100164.11;;;19.81;82.50
28701;BME280;15877;52.344;16.790;2022-09-09T00:43:28;100161.80;;;19.71;83.19
28701;BME280;15877;52.344;16.790;2022-09-09T00:46:37;100166.89;;;19.71;83.40
28701;BME280;15877;52.344;16.790;2022-09-09T00:49:22;100156.20;;;19.61;83.20
28701;BME280;15877;52.344;16.790;2022-09-09T00:52:06;100147.19;;;19.57;83.42
28701;BME280;15877;52.344;16.790;2022-09-09T00:54:48;100167.80;;;19.70;83.00
28701;BME280;15877;52.344;16.790;2022-09-09T00:57:28;100164.67;;;19.69;82.57
28701;BME280;15877;52.344;16.790;2022-09-09T01:00:19;100164.48;;;19.70;82.14
28701;BME280;15877;52.344;16.790;2022-09-09T01:03:05;100161.29;;;19.65;82.43
28701;BME280;15877;52.344;16.790;2022-09-09T01:05:46;100162.73;;;19.65;81.96
28701;BME280;15877;52.344;16.790;2022-09-09T01:08:39;100170.20;;;19.63;81.78
28701;BME280;15877;52.344;16.790;2022-09-09T01:11:22;100171.44;;;19.57;81.83
28701;BME280;15877;52.344;16.790;2022-09-09T01:14:05;100178.04;;;19.52;81.66
28701;BME280;15877;52.344;16.790;2022-09-09T01:16:44;100180.16;;;19.51;81.52
28701;BME280;15877;52.344;16.790;2022-09-09T01:19:27;100183.31;;;19.45;81.71
28701;BME280;15877;52.344;16.790;2022-09-09T01:22:11;100185.41;;;19.45;81.36
28701;BME280;15877;52.344;16.790;2022-09-09T01:25:05;100185.50;;;19.39;81.44
28701;BME280;15877;52.344;16.790;2022-09-09T01:27:58;100187.20;;;19.34;81.50
28701;BME280;15877;52.344;16.790;2022-09-09T01:30:32;100189.90;;;19.37;81.29
28701;BME280;15877;52.344;16.790;2022-09-09T01:33:05;100192.62;;;19.37;81.06
28701;BME280;15877;52.344;16.790;2022-09-09T01:35:45;100197.31;;;19.36;81.02
28701;BME280;15877;52.344;16.790;2022-09-09T01:38:19;100198.30;;;19.35;80.77
28701;BME280;15877;52.344;16.790;2022-09-09T01:40:54;100197.73;;;19.29;81.07
28701;BME280;15877;52.344;16.790;2022-09-09T01:43:33;100200.48;;;19.28;80.85
28701;BME280;15877;52.344;16.790;2022-09-09T01:46:06;100198.98;;;19.22;80.67
28701;BME280;15877;52.344;16.790;2022-09-09T01:48:39;100198.02;;;19.22;80.44
28701;BME280;15877;52.344;16.790;2022-09-09T01:51:13;100201.56;;;19.21;80.23
28701;BME280;15877;52.344;16.790;2022-09-09T01:53:46;100201.32;;;19.21;80.23
28701;BME280;15877;52.344;16.790;2022-09-09T01:56:29;100201.36;;;19.19;79.68
28701;BME280;15877;52.344;16.790;2022-09-09T01:59:13;100187.13;;;19.09;79.35
28701;BME280;15877;52.344;16.790;2022-09-09T02:02:02;100202.46;;;19.16;78.91
28701;BME280;15877;52.344;16.790;2022-09-09T02:04:43;100205.53;;;19.15;78.73
28701;BME280;15877;52.344;16.790;2022-09-09T02:07:35;100212.92;;;19.11;78.57
28701;BME280;15877;52.344;16.790;2022-09-09T02:10:22;100210.02;;;19.07;78.70
28701;BME280;15877;52.344;16.790;2022-09-09T02:13:07;100214.63;;;19.04;78.89
28701;BME280;15877;52.344;16.790;2022-09-09T02:15:45;100210.09;;;19.02;78.79
28701;BME280;15877;52.344;16.790;2022-09-09T02:18:24;100215.86;;;18.98;78.89
28701;BME280;15877;52.344;16.790;2022-09-09T02:20:59;100209.13;;;18.97;78.28
28701;BME280;15877;52.344;16.790;2022-09-09T02:23:33;100215.09;;;18.96;78.04
28701;BME280;15877;52.344;16.790;2022-09-09T02:26:09;100217.56;;;18.93;77.66
28701;BME280;15877;52.344;16.790;2022-09-09T02:28:44;100217.90;;;18.91;77.31
28701;BME280;15877;52.344;16.790;2022-09-09T02:31:20;100220.84;;;18.88;77.69
28701;BME280;15877;52.344;16.790;2022-09-09T02:33:57;100224.52;;;18.85;77.63
28701;BME280;15877;52.344;16.790;2022-09-09T02:36:33;100225.91;;;18.83;77.35
28701;BME280;15877;52.344;16.790;2022-09-09T02:39:08;100229.08;;;18.81;76.86
28701;BME280;15877;52.344;16.790;2022-09-09T02:41:43;100227.17;;;18.78;76.67
28701;BME280;15877;52.344;16.790;2022-09-09T02:44:17;100223.71;;;18.74;76.70
28701;BME280;15877;52.344;16.790;2022-09-09T02:50:00;100224.36;;;18.68;76.18
28701;BME280;15877;52.344;16.790;2022-09-09T02:52:42;100226.66;;;18.64;75.68
28701;BME280;15877;52.344;16.790;2022-09-09T02:55:22;100233.23;;;18.60;75.52
28701;BME280;15877;52.344;16.790;2022-09-09T02:57:58;100234.73;;;18.56;75.23
28701;BME280;15877;52.344;16.790;2022-09-09T03:00:31;100240.49;;;18.53;75.37
28701;BME280;15877;52.344;16.790;2022-09-09T03:03:04;100242.23;;;18.49;75.41
28701;BME280;15877;52.344;16.790;2022-09-09T03:05:37;100240.34;;;18.45;75.47
28701;BME280;15877;52.344;16.790;2022-09-09T03:08:10;100243.86;;;18.41;75.88
28701;BME280;15877;52.344;16.790;2022-09-09T03:10:42;100244.50;;;18.40;76.22
28701;BME280;15877;52.344;16.790;2022-09-09T03:13:16;100249.88;;;18.39;75.46
28701;BME280;15877;52.344;16.790;2022-09-09T03:15:50;100248.05;;;18.37;75.12
28701;BME280;15877;52.344;16.790;2022-09-09T03:18:23;100243.86;;;18.32;75.18
28701;BME280;15877;52.344;16.790;2022-09-09T03:20:56;100250.37;;;18.32;74.87
28701;BME280;15877;52.344;16.790;2022-09-09T03:23:30;100236.05;;;18.20;74.90
28701;BME280;15877;52.344;16.790;2022-09-09T03:26:04;100250.44;;;18.26;74.70
28701;BME280;15877;52.344;16.790;2022-09-09T03:28:43;100248.96;;;18.21;74.61
28701;BME280;15877;52.344;16.790;2022-09-09T03:31:17;100259.11;;;18.20;74.40
28701;BME280;15877;52.344;16.790;2022-09-09T03:33:50;100254.42;;;18.16;74.52
28701;BME280;15877;52.344;16.790;2022-09-09T03:36:23;100264.08;;;18.14;74.46
28701;BME280;15877;52.344;16.790;2022-09-09T03:38:57;100266.92;;;18.11;74.62
28701;BME280;15877;52.344;16.790;2022-09-09T03:41:31;100264.89;;;18.07;74.69
28701;BME280;15877;52.344;16.790;2022-09-09T03:44:04;100266.19;;;18.05;75.27
28701;BME280;15877;52.344;16.790;2022-09-09T03:46:40;100265.66;;;18.02;75.56
28701;BME280;15877;52.344;16.790;2022-09-09T03:49:12;100265.02;;;18.01;75.81
28701;BME280;15877;52.344;16.790;2022-09-09T03:51:46;100269.29;;;18.01;76.33
28701;BME280;15877;52.344;16.790;2022-09-09T03:54:18;100271.86;;;18.00;77.08
28701;BME280;15877;52.344;16.790;2022-09-09T03:56:51;100273.15;;;18.00;77.57
28701;BME280;15877;52.344;16.790;2022-09-09T03:59:28;100276.82;;;18.02;78.08
28701;BME280;15877;52.344;16.790;2022-09-09T04:02:01;100279.05;;;18.04;78.52
28701;BME280;15877;52.344;16.790;2022-09-09T04:04:33;100283.70;;;18.06;78.67
28701;BME280;15877;52.344;16.790;2022-09-09T04:07:05;100285.91;;;18.09;78.93
28701;BME280;15877;52.344;16.790;2022-09-09T04:09:38;100284.29;;;18.09;78.91
28701;BME280;15877;52.344;16.790;2022-09-09T04:12:11;100286.20;;;18.12;79.31
28701;BME280;15877;52.344;16.790;2022-09-09T04:14:44;100281.70;;;18.11;79.30
28701;BME280;15877;52.344;16.790;2022-09-09T04:17:16;100287.50;;;18.17;79.61
28701;BME280;15877;52.344;16.790;2022-09-09T04:19:49;100285.47;;;18.19;79.58
28701;BME280;15877;52.344;16.790;2022-09-09T04:22:22;100282.56;;;18.21;79.12
28701;BME280;15877;52.344;16.790;2022-09-09T04:24:55;100284.16;;;18.22;79.45
28701;BME280;15877;52.344;16.790;2022-09-09T04:27:28;100287.59;;;18.23;79.34
28701;BME280;15877;52.344;16.790;2022-09-09T04:30:01;100286.80;;;18.22;78.90
28701;BME280;15877;52.344;16.790;2022-09-09T04:32:35;100292.55;;;18.25;79.15
28701;BME280;15877;52.344;16.790;2022-09-09T04:35:09;100287.58;;;18.24;78.87
28701;BME280;15877;52.344;16.790;2022-09-09T04:37:41;100294.52;;;18.28;78.58
28701;BME280;15877;52.344;16.790;2022-09-09T04:40:14;100282.27;;;18.18;78.50
28701;BME280;15877;52.344;16.790;2022-09-09T04:42:47;100289.45;;;18.29;78.21
28701;BME280;15877;52.344;16.790;2022-09-09T04:45:20;100264.30;;;18.10;78.31
28701;BME280;15877;52.344;16.790;2022-09-09T04:47:52;100295.95;;;18.30;77.98
28701;BME280;15877;52.344;16.790;2022-09-09T04:50:25;100302.00;;;18.28;77.80
28701;BME280;15877;52.344;16.790;2022-09-09T04:53:03;100303.79;;;18.26;77.78
28701;BME280;15877;52.344;16.790;2022-09-09T04:55:36;100289.84;;;18.17;77.35
28701;BME280;15877;52.344;16.790;2022-09-09T04:58:09;100305.98;;;18.24;77.38
28701;BME280;15877;52.344;16.790;2022-09-09T05:00:41;100306.24;;;18.22;77.21
28701;BME280;15877;52.344;16.790;2022-09-09T05:03:15;100310.52;;;18.22;77.07
28701;BME280;15877;52.344;16.790;2022-09-09T05:05:47;100307.31;;;18.20;77.17
28701;BME280;15877;52.344;16.790;2022-09-09T05:08:19;100308.05;;;18.18;77.41
28701;BME280;15877;52.344;16.790;2022-09-09T05:10:51;100312.33;;;18.17;77.29
28701;BME280;15877;52.344;16.790;2022-09-09T05:13:24;100314.74;;;18.17;77.38
28701;BME280;15877;52.344;16.790;2022-09-09T05:15:57;100318.23;;;18.14;77.63
28701;BME280;15877;52.344;16.790;2022-09-09T05:18:30;100318.70;;;18.13;77.83
28701;BME280;15877;52.344;16.790;2022-09-09T05:21:03;100318.63;;;18.13;77.75
28701;BME280;15877;52.344;16.790;2022-09-09T05:23:36;100324.71;;;18.16;78.04
28701;BME280;15877;52.344;16.790;2022-09-09T05:26:13;100324.79;;;18.16;78.00
28701;BME280;15877;52.344;16.790;2022-09-09T05:28:48;100322.06;;;18.16;78.30
28701;BME280;15877;52.344;16.790;2022-09-09T05:31:21;100324.39;;;18.16;78.47
28701;BME280;15877;52.344;16.790;2022-09-09T05:33:53;100323.48;;;18.17;78.91
28701;BME280;15877;52.344;16.790;2022-09-09T05:36:26;100317.98;;;18.16;79.19
28701;BME280;15877;52.344;16.790;2022-09-09T05:38:59;100320.60;;;18.18;79.21
28701;BME280;15877;52.344;16.790;2022-09-09T05:41:32;100329.80;;;18.20;79.35
28701;BME280;15877;52.344;16.790;2022-09-09T05:44:07;100329.07;;;18.22;79.71
28701;BME280;15877;52.344;16.790;2022-09-09T05:46:42;100326.70;;;18.25;79.74
28701;BME280;15877;52.344;16.790;2022-09-09T05:49:16;100329.66;;;18.26;80.06
28701;BME280;15877;52.344;16.790;2022-09-09T05:51:48;100331.00;;;18.29;80.17
28701;BME280;15877;52.344;16.790;2022-09-09T05:54:22;100327.61;;;18.30;80.67
28701;BME280;15877;52.344;16.790;2022-09-09T05:56:55;100332.17;;;18.32;80.83
28701;BME280;15877;52.344;16.790;2022-09-09T05:59:28;100329.58;;;18.34;80.83
28701;BME280;15877;52.344;16.790;2022-09-09T06:02:03;100331.80;;;18.36;81.21
28701;BME280;15877;52.344;16.790;2022-09-09T06:04:38;100325.77;;;18.38;81.52
28701;BME280;15877;52.344;16.790;2022-09-09T06:07:11;100325.13;;;18.39;81.71
28701;BME280;15877;52.344;16.790;2022-09-09T06:09:45;100317.88;;;18.34;82.44
28701;BME280;15877;52.344;16.790;2022-09-09T06:12:17;100312.90;;;18.33;83.18
28701;BME280;15877;52.344;16.790;2022-09-09T06:14:51;100328.02;;;18.47;83.47
28701;BME280;15877;52.344;16.790;2022-09-09T06:17:24;100327.56;;;18.50;83.43
28701;BME280;15877;52.344;16.790;2022-09-09T06:19:56;100327.56;;;18.52;84.38
28701;BME280;15877;52.344;16.790;2022-09-09T06:22:29;100332.20;;;18.59;83.93
28701;BME280;15877;52.344;16.790;2022-09-09T06:25:02;100332.15;;;18.64;83.93
28701;BME280;15877;52.344;16.790;2022-09-09T06:27:34;100332.52;;;18.66;84.00
28701;BME280;15877;52.344;16.790;2022-09-09T06:30:09;100330.46;;;18.70;84.23
28701;BME280;15877;52.344;16.790;2022-09-09T06:32:42;100321.58;;;18.60;84.51
28701;BME280;15877;52.344;16.790;2022-09-09T06:35:15;100337.55;;;18.69;85.56
28701;BME280;15877;52.344;16.790;2022-09-09T06:37:48;100343.31;;;18.77;85.06
28701;BME280;15877;52.344;16.790;2022-09-09T06:40:20;100340.62;;;18.87;84.38
28701;BME280;15877;52.344;16.790;2022-09-09T06:42:53;100347.41;;;18.89;84.69
28701;BME280;15877;52.344;16.790;2022-09-09T06:45:37;100350.66;;;18.94;84.67
28701;BME280;15877;52.344;16.790;2022-09-09T06:48:11;100345.28;;;19.03;84.18
28701;BME280;15877;52.344;16.790;2022-09-09T06:50:43;100341.27;;;19.03;85.11
28701;BME280;15877;52.344;16.790;2022-09-09T06:53:18;100339.77;;;19.07;84.86
28701;BME280;15877;52.344;16.790;2022-09-09T06:55:51;100339.73;;;19.09;84.90
28701;BME280;15877;52.344;16.790;2022-09-09T06:58:23;100337.23;;;19.11;85.36
28701;BME280;15877;52.344;16.790;2022-09-09T07:01:04;100342.04;;;19.18;85.57
28701;BME280;15877;52.344;16.790;2022-09-09T07:03:37;100341.27;;;19.21;85.14
28701;BME280;15877;52.344;16.790;2022-09-09T07:06:12;100337.33;;;19.26;85.50
28701;BME280;15877;52.344;16.790;2022-09-09T07:08:50;100344.00;;;19.33;84.91
28701;BME280;15877;52.344;16.790;2022-09-09T07:11:30;100336.83;;;19.39;84.88
28701;BME280;15877;52.344;16.790;2022-09-09T07:14:03;100343.26;;;19.47;83.68
28701;BME280;15877;52.344;16.790;2022-09-09T07:16:35;100338.32;;;19.47;83.64
28701;BME280;15877;52.344;16.790;2022-09-09T07:19:08;100339.77;;;19.53;84.26
28701;BME280;15877;52.344;16.790;2022-09-09T07:21:42;100340.23;;;19.55;84.35
28701;BME280;15877;52.344;16.790;2022-09-09T07:24:16;100335.02;;;19.58;83.88
28701;BME280;15877;52.344;16.790;2022-09-09T07:26:49;100336.05;;;19.63;84.22
28701;BME280;15877;52.344;16.790;2022-09-09T07:29:23;100338.44;;;19.70;83.26
28701;BME280;15877;52.344;16.790;2022-09-09T07:31:55;100328.27;;;19.71;82.72
28701;BME280;15877;52.344;16.790;2022-09-09T07:34:30;100344.90;;;19.87;82.42
28701;BME280;15877;52.344;16.790;2022-09-09T07:37:02;100339.14;;;19.81;83.33
28701;BME280;15877;52.344;16.790;2022-09-09T07:39:35;100340.49;;;19.81;83.80
28701;BME280;15877;52.344;16.790;2022-09-09T07:42:08;100342.83;;;19.82;83.39
28701;BME280;15877;52.344;16.790;2022-09-09T07:44:42;100349.84;;;19.87;82.52
28701;BME280;15877;52.344;16.790;2022-09-09T07:47:17;100343.43;;;19.98;82.73
28701;BME280;15877;52.344;16.790;2022-09-09T07:49:50;100345.00;;;20.04;82.86
28701;BME280;15877;52.344;16.790;2022-09-09T07:52:28;100349.15;;;20.07;83.29
28701;BME280;15877;52.344;16.790;2022-09-09T07:55:03;100348.66;;;20.12;82.73
28701;BME280;15877;52.344;16.790;2022-09-09T07:57:37;100353.30;;;20.13;83.75
28701;BME280;15877;52.344;16.790;2022-09-09T08:00:13;100356.19;;;20.20;82.47
28701;BME280;15877;52.344;16.790;2022-09-09T08:02:47;100356.77;;;20.28;81.48
28701;BME280;15877;52.344;16.790;2022-09-09T08:05:19;100358.25;;;20.26;82.14
28701;BME280;15877;52.344;16.790;2022-09-09T08:07:54;100356.75;;;20.25;81.98
28701;BME280;15877;52.344;16.790;2022-09-09T08:10:26;100361.16;;;20.26;82.91
28701;BME280;15877;52.344;16.790;2022-09-09T08:12:58;100357.82;;;20.23;82.33
28701;BME280;15877;52.344;16.790;2022-09-09T08:15:48;100364.73;;;20.33;82.27
28701;BME280;15877;52.344;16.790;2022-09-09T08:18:22;100367.33;;;20.37;82.08
28701;BME280;15877;52.344;16.790;2022-09-09T08:20:54;100360.21;;;20.29;82.43
28701;BME280;15877;52.344;16.790;2022-09-09T08:23:27;100370.92;;;20.47;81.67
28701;BME280;15877;52.344;16.790;2022-09-09T08:26:06;100368.18;;;20.42;81.01
28701;BME280;15877;52.344;16.790;2022-09-09T08:28:43;100369.94;;;20.57;81.28
28701;BME280;15877;52.344;16.790;2022-09-09T08:31:18;100348.59;;;20.47;81.68
28701;BME280;15877;52.344;16.790;2022-09-09T08:33:51;100375.58;;;20.64;80.40
28701;BME280;15877;52.344;16.790;2022-09-09T08:36:25;100372.30;;;20.71;79.85
28701;BME280;15877;52.344;16.790;2022-09-09T08:38:59;100373.75;;;20.79;79.38
28701;BME280;15877;52.344;16.790;2022-09-09T08:41:59;100362.52;;;20.76;79.69
28701;BME280;15877;52.344;16.790;2022-09-09T08:44:47;100374.68;;;20.92;78.12
28701;BME280;15877;52.344;16.790;2022-09-09T08:47:26;100382.28;;;21.04;77.02
28701;BME280;15877;52.344;16.790;2022-09-09T08:50:16;100378.40;;;21.09;77.27
28701;BME280;15877;52.344;16.790;2022-09-09T08:52:57;100379.89;;;21.17;76.27
28701;BME280;15877;52.344;16.790;2022-09-09T08:55:37;100379.20;;;21.13;76.10
28701;BME280;15877;52.344;16.790;2022-09-09T08:58:16;100376.30;;;21.19;76.18
28701;BME280;15877;52.344;16.790;2022-09-09T09:01:22;100381.98;;;21.25;76.53
28701;BME280;15877;52.344;16.790;2022-09-09T09:04:05;100378.49;;;21.26;76.14
28701;BME280;15877;52.344;16.790;2022-09-09T09:06:50;100376.23;;;21.40;74.69
28701;BME280;15877;52.344;16.790;2022-09-09T09:09:30;100376.26;;;21.39;75.30
28701;BME280;15877;52.344;16.790;2022-09-09T09:12:16;100382.65;;;21.48;75.19
28701;BME280;15877;52.344;16.790;2022-09-09T09:14:49;100372.38;;;21.39;74.73
28701;BME280;15877;52.344;16.790;2022-09-09T09:17:25;100385.23;;;21.49;75.66
28701;BME280;15877;52.344;16.790;2022-09-09T09:19:59;100384.96;;;21.57;75.63
28701;BME280;15877;52.344;16.790;2022-09-09T09:22:37;100381.28;;;21.62;74.51
28701;BME280;15877;52.344;16.790;2022-09-09T09:25:17;100380.20;;;21.77;76.20
28701;BME280;15877;52.344;16.790;2022-09-09T09:27:57;100382.48;;;21.87;76.35
28701;BME280;15877;52.344;16.790;2022-09-09T09:30:36;100385.67;;;21.89;74.82
28701;BME280;15877;52.344;16.790;2022-09-09T09:33:20;100382.75;;;22.02;73.01
28701;BME280;15877;52.344;16.790;2022-09-09T09:35:53;100388.00;;;22.12;72.81
28701;BME280;15877;52.344;16.790;2022-09-09T09:38:27;100394.12;;;22.10;72.76
28701;BME280;15877;52.344;16.790;2022-09-09T09:41:30;100389.57;;;22.17;71.13
28701;BME280;15877;52.344;16.790;2022-09-09T09:44:03;100395.23;;;22.28;71.87
28701;BME280;15877;52.344;16.790;2022-09-09T09:46:36;100396.54;;;22.43;71.57
28701;BME280;15877;52.344;16.790;2022-09-09T09:49:14;100391.56;;;22.48;71.78
28701;BME280;15877;52.344;16.790;2022-09-09T09:51:47;100391.27;;;22.41;70.69
28701;BME280;15877;52.344;16.790;2022-09-09T09:54:25;100393.55;;;22.56;70.94
28701;BME280;15877;52.344;16.790;2022-09-09T09:57:11;100391.30;;;22.69;70.07
28701;BME280;15877;52.344;16.790;2022-09-09T09:59:44;100393.15;;;22.76;70.18
28701;BME280;15877;52.344;16.790;2022-09-09T10:02:24;100396.96;;;22.92;69.34
28701;BME280;15877;52.344;16.790;2022-09-09T10:05:12;100395.80;;;22.96;69.32
28701;BME280;15877;52.344;16.790;2022-09-09T10:07:47;100393.55;;;22.98;68.78
28701;BME280;15877;52.344;16.790;2022-09-09T10:10:42;100384.03;;;22.97;68.10
28701;BME280;15877;52.344;16.790;2022-09-09T10:13:23;100399.16;;;23.11;68.56
28701;BME280;15877;52.344;16.790;2022-09-09T10:16:06;100397.70;;;23.26;67.34
28701;BME280;15877;52.344;16.790;2022-09-09T10:18:52;100394.66;;;23.35;67.49
28701;BME280;15877;52.344;16.790;2022-09-09T10:24:33;100401.42;;;23.31;67.38
28701;BME280;15877;52.344;16.790;2022-09-09T10:27:18;100405.27;;;23.18;68.71
28701;BME280;15877;52.344;16.790;2022-09-09T10:30:04;100406.71;;;23.30;67.06
28701;BME280;15877;52.344;16.790;2022-09-09T10:32:44;100407.06;;;23.50;66.57
28701;BME280;15877;52.344;16.790;2022-09-09T10:35:27;100409.95;;;23.56;66.37
28701;BME280;15877;52.344;16.790;2022-09-09T10:38:14;100416.23;;;23.47;65.87
28701;BME280;15877;52.344;16.790;2022-09-09T10:41:04;100415.82;;;23.29;66.03
28701;BME280;15877;52.344;16.790;2022-09-09T10:43:53;100416.86;;;23.53;65.31
28701;BME280;15877;52.344;16.790;2022-09-09T10:46:40;100419.41;;;23.56;66.05
28701;BME280;15877;52.344;16.790;2022-09-09T10:49:25;100389.68;;;23.36;66.57
28701;BME280;15877;52.344;16.790;2022-09-09T10:52:08;100413.13;;;23.81;65.59
28701;BME280;15877;52.344;16.790;2022-09-09T10:54:55;100413.26;;;23.64;63.04
28701;BME280;15877;52.344;16.790;2022-09-09T10:57:31;100407.77;;;23.59;62.69
28701;BME280;15877;52.344;16.790;2022-09-09T11:00:16;100407.59;;;23.69;63.62
28701;BME280;15877;52.344;16.790;2022-09-09T11:02:53;100410.62;;;23.53;63.32
28701;BME280;15877;52.344;16.790;2022-09-09T11:05:31;100416.73;;;23.70;63.50
28701;BME280;15877;52.344;16.790;2022-09-09T11:08:09;100415.08;;;23.68;62.43
28701;BME280;15877;52.344;16.790;2022-09-09T11:10:46;100412.88;;;23.71;61.95
28701;BME280;15877;52.344;16.790;2022-09-09T11:13:26;100414.13;;;24.00;61.49
28701;BME280;15877;52.344;16.790;2022-09-09T11:16:16;100411.66;;;24.19;59.72
28701;BME280;15877;52.344;16.790;2022-09-09T11:18:51;100407.55;;;24.32;58.55
28701;BME280;15877;52.344;16.790;2022-09-09T11:21:31;100412.63;;;24.49;59.33
28701;BME280;15877;52.344;16.790;2022-09-09T11:24:12;100406.20;;;24.45;58.82
28701;BME280;15877;52.344;16.790;2022-09-09T11:26:51;100413.42;;;24.54;57.85
28701;BME280;15877;52.344;16.790;2022-09-09T11:29:56;100408.55;;;24.54;56.91
28701;BME280;15877;52.344;16.790;2022-09-09T11:32:57;100411.35;;;24.53;57.31
28701;BME280;15877;52.344;16.790;2022-09-09T11:35:40;100411.44;;;24.74;57.30
28701;BME280;15877;52.344;16.790;2022-09-09T11:38:23;100418.92;;;24.57;57.42
28701;BME280;15877;52.344;16.790;2022-09-09T11:40:58;100413.87;;;24.28;58.57
28701;BME280;15877;52.344;16.790;2022-09-09T11:43:32;100417.08;;;24.12;58.76
28701;BME280;15877;52.344;16.790;2022-09-09T11:46:04;100416.43;;;24.07;58.72
28701;BME280;15877;52.344;16.790;2022-09-09T11:48:40;100412.66;;;24.15;59.27
28701;BME280;15877;52.344;16.790;2022-09-09T11:51:27;100418.27;;;23.90;59.60
28701;BME280;15877;52.344;16.790;2022-09-09T11:53:59;100414.91;;;23.68;60.37
28701;BME280;15877;52.344;16.790;2022-09-09T11:56:41;100413.26;;;23.67;60.78
28701;BME280;15877;52.344;16.790;2022-09-09T11:59:23;100405.19;;;24.06;58.53
28701;BME280;15877;52.344;16.790;2022-09-09T12:01:59;100397.79;;;24.26;57.73
28701;BME280;15877;52.344;16.790;2022-09-09T12:04:36;100406.56;;;24.06;57.84
28701;BME280;15877;52.344;16.790;2022-09-09T12:07:31;100401.30;;;23.96;57.34
28701;BME280;15877;52.344;16.790;2022-09-09T12:10:22;100395.87;;;24.32;56.98
28701;BME280;15877;52.344;16.790;2022-09-09T12:13:07;100390.71;;;24.56;57.23
28701;BME280;15877;52.344;16.790;2022-09-09T12:15:49;100385.50;;;24.77;56.38
28701;BME280;15877;52.344;16.790;2022-09-09T12:18:25;100386.77;;;24.95;55.35
28701;BME280;15877;52.344;16.790;2022-09-09T12:21:05;100388.27;;;25.05;52.96
28701;BME280;15877;52.344;16.790;2022-09-09T12:23:44;100388.63;;;25.23;54.31
28701;BME280;15877;52.344;16.790;2022-09-09T12:26:30;100383.04;;;25.33;53.36
28701;BME280;15877;52.344;16.790;2022-09-09T12:29:15;100377.59;;;25.46;54.09
28701;BME280;15877;52.344;16.790;2022-09-09T12:31:56;100380.80;;;25.55;54.00
28701;BME280;15877;52.344;16.790;2022-09-09T12:34:38;100381.06;;;25.57;51.65
28701;BME280;15877;52.344;16.790;2022-09-09T12:37:21;100377.64;;;25.67;51.23
28701;BME280;15877;52.344;16.790;2022-09-09T12:39:57;100384.58;;;25.42;52.81
28701;BME280;15877;52.344;16.790;2022-09-09T12:42:30;100385.15;;;25.33;52.98
28701;BME280;15877;52.344;16.790;2022-09-09T12:45:19;100381.11;;;25.09;53.96
28701;BME280;15877;52.344;16.790;2022-09-09T12:47:53;100378.88;;;24.91;53.82
28701;BME280;15877;52.344;16.790;2022-09-09T12:50:29;100377.38;;;24.73;53.84
28701;BME280;15877;52.344;16.790;2022-09-09T12:53:04;100373.06;;;24.73;56.10
28701;BME280;15877;52.344;16.790;2022-09-09T12:55:48;100372.45;;;24.59;55.98
28701;BME280;15877;52.344;16.790;2022-09-09T12:58:21;100372.21;;;24.49;54.93
28701;BME280;15877;52.344;16.790;2022-09-09T13:00:56;100373.58;;;24.45;56.38
28701;BME280;15877;52.344;16.790;2022-09-09T13:03:28;100366.73;;;24.71;54.69
28701;BME280;15877;52.344;16.790;2022-09-09T13:06:13;100369.16;;;24.91;53.06
28701;BME280;15877;52.344;16.790;2022-09-09T13:08:46;100372.95;;;25.06;52.60
28701;BME280;15877;52.344;16.790;2022-09-09T13:11:22;100360.02;;;25.00;52.09
28701;BME280;15877;52.344;16.790;2022-09-09T13:13:57;100379.49;;;25.17;52.89
28701;BME280;15877;52.344;16.790;2022-09-09T13:16:32;100379.64;;;25.05;53.28
28701;BME280;15877;52.344;16.790;2022-09-09T13:19:15;100376.78;;;25.23;52.26
28701;BME280;15877;52.344;16.790;2022-09-09T13:21:48;100377.14;;;25.24;52.69
28701;BME280;15877;52.344;16.790;2022-09-09T13:24:29;100373.94;;;24.97;51.97
28701;BME280;15877;52.344;16.790;2022-09-09T13:27:03;100378.16;;;24.76;52.00
28701;BME280;15877;52.344;16.790;2022-09-09T13:29:37;100379.46;;;24.62;52.61
28701;BME280;15877;52.344;16.790;2022-09-09T13:32:18;100380.77;;;24.55;53.25
28701;BME280;15877;52.344;16.790;2022-09-09T13:34:54;100379.73;;;24.55;53.20
28701;BME280;15877;52.344;16.790;2022-09-09T13:37:31;100374.50;;;24.55;53.60
28701;BME280;15877;52.344;16.790;2022-09-09T13:40:14;100369.73;;;24.58;53.20